Time;durP1;ratioP1;P1;durP2;ratioP2;P2;SDS_P1;SDS_P2;PMS_P1;PMS_P2;Temp;Humidity;BMP_temperature;BMP_pressure;BME280_temperature;BME280_humidity;BME280_pressure;Samples;Min_cycle;Max_cycle;Signal;HPM_P1;HPM_P2
2023/10/12 03:02:18;;;;;;;7.70;4.40;;;21.60;51.10;;;;;;5136095;23;44922;-82
2023/10/12 03:04:45;;;;;;;7.20;4.30;;;21.60;51.20;;;;;;4882739;28;46309;-82
2023/10/12 03:07:16;;;;;;;6.63;4.53;;;21.60;51.10;;;;;;4908528;28;45525;-82
2023/10/12 03:09:44;;;;;;;6.57;4.47;;;21.60;51.10;;;;;;4872998;28;45421;-81
2023/10/12 03:12:11;;;;;;;7.25;4.22;;;21.70;51.20;;;;;;4860989;29;45474;-82
2023/10/12 03:14:36;;;;;;;8.00;4.80;;;21.60;51.10;;;;;;4880892;28;46770;-82
2023/10/12 03:17:07;;;;;;;6.77;3.97;;;21.60;51.10;;;;;;4840838;28;44664;-83
2023/10/12 03:19:35;;;;;;;6.90;4.15;;;21.60;51.10;;;;;;4835250;28;45295;-82
2023/10/12 03:22:17;;;;;;;7.00;4.15;;;21.70;51.10;;;;;;4866751;28;45314;-82
2023/10/12 03:24:51;;;;;;;5.85;4.13;;;21.60;51.10;;;;;;4855284;28;45484;-82
2023/10/12 03:27:19;;;;;;;5.53;3.97;;;21.60;51.10;;;;;;4862950;29;44914;-83
2023/10/12 03:29:50;;;;;;;6.20;4.13;;;21.60;51.10;;;;;;4835918;28;45646;-82
2023/10/12 03:32:22;;;;;;;7.15;4.47;;;21.60;51.10;;;;;;4855987;28;45330;-82
2023/10/12 03:37:18;;;;;;;6.82;3.80;;;21.60;51.00;;;;;;4876703;28;45522;-81
2023/10/12 03:45:07;;;;;;;6.28;4.18;;;21.70;51.10;;;;;;4865473;28;46358;-81
2023/10/12 03:47:46;;;;;;;5.32;3.80;;;21.60;51.00;;;;;;4851757;28;45064;-83
2023/10/12 03:50:17;;;;;;;6.93;4.20;;;21.60;51.00;;;;;;4874352;28;45409;-80
2023/10/12 03:52:52;;;;;;;8.00;4.32;;;21.60;51.00;;;;;;4847377;28;45536;-83
2023/10/12 03:55:28;;;;;;;6.73;4.33;;;21.60;51.00;;;;;;4867196;29;46006;-82
2023/10/12 03:58:05;;;;;;;7.97;4.50;;;21.60;51.00;;;;;;4865182;28;45017;-83
2023/10/12 04:01:05;;;;;;;7.28;4.07;;;21.60;51.00;;;;;;4843963;28;45164;-81
2023/10/12 04:03:38;;;;;;;5.80;3.47;;;21.60;51.10;;;;;;4834128;29;45845;-82
2023/10/12 04:06:15;;;;;;;6.05;3.95;;;21.60;51.00;;;;;;4823678;29;46239;-82
2023/10/12 04:08:55;;;;;;;6.05;3.95;;;21.60;51.00;;;;;;4816034;29;46328;-83
2023/10/12 04:11:47;;;;;;;7.25;3.60;;;21.60;51.00;;;;;;4848956;29;45501;-83
2023/10/12 04:14:17;;;;;;;6.90;3.83;;;21.60;51.00;;;;;;4873426;29;45459;-83
2023/10/12 04:16:45;;;;;;;7.20;4.30;;;21.60;51.00;;;;;;4853218;23;46505;-51
2023/10/12 04:19:15;;;;;;;6.10;3.80;;;21.60;51.00;;;;;;4891579;28;45673;-50
2023/10/12 04:21:57;;;;;;;6.60;4.25;;;21.60;51.00;;;;;;4885544;28;45436;-53
2023/10/12 04:24:29;;;;;;;6.07;3.88;;;21.60;51.00;;;;;;4889060;28;45488;-52
2023/10/12 04:27:23;;;;;;;6.45;4.10;;;21.60;51.00;;;;;;4889217;28;46249;-52
2023/10/12 04:29:50;;;;;;;5.63;4.05;;;21.60;50.90;;;;;;4895300;28;45757;-52
2023/10/12 04:32:26;;;;;;;6.25;3.90;;;21.60;50.90;;;;;;4882765;28;45566;-53
2023/10/12 04:34:52;;;;;;;5.75;3.67;;;21.60;50.90;;;;;;4877088;28;45364;-51
2023/10/12 04:37:27;;;;;;;5.83;3.83;;;21.60;50.90;;;;;;4887448;28;46412;-51
2023/10/12 04:40:32;;;;;;;6.50;3.88;;;21.60;50.90;;;;;;4864151;28;45060;-52
2023/10/12 04:42:48;;;;;;;5.95;3.95;;;21.60;50.90;;;;;;4840565;28;45277;-53
2023/10/12 04:47:46;;;;;;;5.53;3.83;;;21.60;50.90;;;;;;4843900;28;46022;-51
2023/10/12 04:50:26;;;;;;;5.70;3.70;;;21.60;50.90;;;;;;4871015;28;45547;-51
2023/10/12 04:53:07;;;;;;;4.47;3.45;;;21.60;50.90;;;;;;4878540;28;45908;-52
2023/10/12 04:55:34;;;;;;;4.82;3.42;;;21.60;50.90;;;;;;4865591;28;46529;-59
2023/10/12 05:01:12;;;;;;;6.57;3.95;;;21.60;50.90;;;;;;4880162;28;45703;-55
2023/10/12 05:03:41;;;;;;;6.57;3.90;;;21.60;50.90;;;;;;4871420;28;45590;-59
2023/10/12 05:06:13;;;;;;;5.17;3.53;;;21.60;50.90;;;;;;4885425;28;45688;-56
2023/10/12 05:08:40;;;;;;;5.55;3.60;;;21.60;50.90;;;;;;4896462;28;46262;-55
2023/10/12 05:11:08;;;;;;;6.72;3.97;;;21.60;50.90;;;;;;4888934;28;45451;-51
2023/10/12 05:13:33;;;;;;;5.03;3.42;;;21.60;50.90;;;;;;4895156;28;44953;-54
2023/10/12 05:16:06;;;;;;;6.37;3.60;;;21.60;50.90;;;;;;4859132;28;45408;-51
2023/10/12 05:18:32;;;;;;;6.10;3.67;;;21.60;50.90;;;;;;4865444;28;45385;-51
2023/10/12 05:20:57;;;;;;;4.97;3.60;;;21.60;50.90;;;;;;4881211;28;46199;-52
2023/10/12 05:23:23;;;;;;;6.50;3.60;;;21.60;50.90;;;;;;4899851;28;45728;-53
2023/10/12 05:28:18;;;;;;;5.70;3.83;;;21.60;50.90;;;;;;4881192;28;45201;-52
2023/10/12 05:30:59;;;;;;;7.35;3.88;;;21.60;51.00;;;;;;4873159;28;45559;-53
2023/10/12 05:33:37;;;;;;;6.80;3.70;;;21.60;50.90;;;;;;4892693;28;45337;-53
2023/10/12 05:36:10;;;;;;;5.90;3.67;;;21.50;50.80;;;;;;4875281;28;45744;-50
2023/10/12 05:38:37;;;;;;;5.68;3.65;;;21.60;50.90;;;;;;4868440;28;45247;-51
2023/10/12 05:41:08;;;;;;;5.13;3.42;;;21.60;50.90;;;;;;4875733;28;45532;-53
2023/10/12 05:43:39;;;;;;;5.20;3.58;;;21.50;50.80;;;;;;4889471;28;45270;-51
2023/10/12 05:46:09;;;;;;;5.47;3.70;;;21.60;50.90;;;;;;4864869;28;45824;-52
2023/10/12 05:48:41;;;;;;;4.60;3.47;;;21.50;50.80;;;;;;4887295;28;46074;-51
2023/10/12 05:51:10;;;;;;;7.17;3.80;;;21.50;50.80;;;;;;4887939;28;45402;-53
2023/10/12 05:53:37;;;;;;;7.07;3.40;;;21.60;50.90;;;;;;4904792;28;45330;-52
2023/10/12 05:56:05;;;;;;;5.07;3.42;;;21.60;50.90;;;;;;4875966;28;45986;-51
2023/10/12 05:58:33;;;;;;;5.53;3.60;;;21.50;50.80;;;;;;4889827;28;45113;-56
2023/10/12 06:01:07;;;;;;;4.87;3.30;;;21.60;50.90;;;;;;4877787;28;45828;-55
2023/10/12 06:03:39;;;;;;;6.00;3.72;;;21.50;50.80;;;;;;4886382;28;45274;-54
2023/10/12 06:06:06;;;;;;;5.45;3.90;;;21.50;50.80;;;;;;4881111;28;45344;-52
2023/10/12 06:08:33;;;;;;;5.32;3.55;;;21.60;50.90;;;;;;4909415;28;45351;-53
2023/10/12 06:10:59;;;;;;;4.72;3.17;;;21.60;50.80;;;;;;4885872;28;45726;-53
2023/10/12 06:13:32;;;;;;;5.03;3.63;;;21.60;50.90;;;;;;4900736;28;45109;-51
2023/10/12 06:15:58;;;;;;;6.05;3.50;;;21.60;50.90;;;;;;4882926;28;45347;-53
2023/10/12 06:18:30;;;;;;;4.88;3.20;;;21.60;50.80;;;;;;4876910;28;45360;-57
2023/10/12 06:20:58;;;;;;;5.30;3.72;;;21.50;50.80;;;;;;4892944;28;46212;-51
2023/10/12 06:23:27;;;;;;;5.75;3.33;;;21.60;50.80;;;;;;4901797;28;46055;-55
2023/10/12 06:25:55;;;;;;;5.65;3.10;;;21.60;50.80;;;;;;4892634;28;45287;-55
2023/10/12 06:28:21;;;;;;;5.53;3.58;;;21.50;50.80;;;;;;4883621;28;45158;-55
2023/10/12 06:30:47;;;;;;;4.88;3.15;;;21.60;50.80;;;;;;4888389;28;45287;-59
2023/10/12 06:33:15;;;;;;;5.32;3.50;;;21.50;50.70;;;;;;4880122;28;45414;-54
2023/10/12 06:36:00;;;;;;;7.25;3.33;;;21.50;50.70;;;;;;4878836;28;45373;-55
2023/10/12 06:38:37;;;;;;;5.32;3.28;;;21.60;50.80;;;;;;4879259;28;45271;-55
2023/10/12 06:41:28;;;;;;;6.15;3.60;;;21.50;50.80;;;;;;4887844;28;45581;-56
2023/10/12 06:46:18;;;;;;;5.00;3.42;;;21.50;50.80;;;;;;4866061;28;46053;-52
2023/10/12 06:48:44;;;;;;;5.25;3.58;;;21.50;50.70;;;;;;4901713;28;45908;-57
2023/10/12 06:51:16;;;;;;;4.38;3.20;;;21.50;50.80;;;;;;4891792;28;45340;-53
2023/10/12 06:53:51;;;;;;;5.60;3.22;;;21.50;50.80;;;;;;4901577;28;45172;-57
2023/10/12 07:01:39;;;;;;;4.05;2.92;;;21.50;50.80;;;;;;4862785;28;45317;-55
2023/10/12 07:04:12;;;;;;;5.93;3.40;;;21.50;50.80;;;;;;4879441;28;45564;-55
2023/10/12 07:06:39;;;;;;;4.93;3.20;;;21.50;50.70;;;;;;4875448;28;45982;-52
2023/10/12 07:09:06;;;;;;;5.10;3.55;;;21.50;50.70;;;;;;4899051;28;46431;-54
2023/10/12 07:11:32;;;;;;;5.43;3.47;;;21.50;50.70;;;;;;4892267;28;45484;-55
2023/10/12 07:14:04;;;;;;;5.53;3.10;;;21.50;50.80;;;;;;4896788;28;45314;-55
2023/10/12 07:16:31;;;;;;;4.87;3.33;;;21.50;50.70;;;;;;4889311;28;45679;-55
2023/10/12 07:18:58;;;;;;;4.88;3.15;;;21.50;50.70;;;;;;4901448;28;46032;-52
2023/10/12 07:21:24;;;;;;;5.07;3.35;;;21.60;50.80;;;;;;4880648;28;45483;-57
2023/10/12 07:23:52;;;;;;;4.80;3.07;;;21.50;50.70;;;;;;4900564;28;45415;-52
2023/10/12 07:26:19;;;;;;;5.07;3.40;;;21.60;50.80;;;;;;4876590;28;46153;-58
2023/10/12 07:28:49;;;;;;;5.30;3.20;;;21.50;50.70;;;;;;4890076;28;45233;-55
2023/10/12 07:36:45;;;;;;;5.28;3.38;;;21.50;50.70;;;;;;4885737;28;45552;-56
2023/10/12 07:41:52;;;;;;;5.03;3.22;;;21.50;50.70;;;;;;4894346;28;45565;-51
2023/10/12 07:44:19;;;;;;;5.70;3.33;;;21.50;50.70;;;;;;4889498;28;45305;-52
2023/10/12 07:46:45;;;;;;;4.83;3.10;;;21.50;50.70;;;;;;4885382;28;45849;-51
2023/10/12 07:52:15;;;;;;;5.18;3.70;;;21.50;50.70;;;;;;4897303;28;45307;-51
2023/10/12 07:57:17;;;;;;;5.22;3.20;;;21.50;50.70;;;;;;4891478;28;45577;-52
2023/10/12 07:59:54;;;;;;;4.72;3.08;;;21.50;50.70;;;;;;4906895;28;45633;-51
2023/10/12 08:10:30;;;;;;;5.72;3.20;;;21.50;50.70;;;;;;4894165;28;45508;-56
2023/10/12 08:12:56;;;;;;;4.10;2.88;;;21.50;50.70;;;;;;4899367;28;45998;-55
2023/10/12 08:15:49;;;;;;;5.63;3.63;;;21.50;50.70;;;;;;4889229;28;45514;-51
2023/10/12 08:18:50;;;;;;;5.40;3.20;;;21.50;50.70;;;;;;4894215;28;45647;-51
2023/10/12 08:21:00;;;;;;;5.03;3.10;;;21.50;50.70;;;;;;4895497;28;45993;-53
2023/10/12 08:23:26;;;;;;;4.18;3.20;;;21.50;50.70;;;;;;4885713;28;45926;-51
2023/10/12 08:25:57;;;;;;;5.65;3.10;;;21.50;50.70;;;;;;4894084;28;45410;-54
2023/10/12 08:28:35;;;;;;;5.28;3.20;;;21.50;50.70;;;;;;4905091;28;45847;-53
2023/10/12 08:31:15;;;;;;;4.63;3.20;;;21.50;50.70;;;;;;4881175;28;46466;-53
2023/10/12 08:33:57;;;;;;;6.32;3.15;;;21.50;50.80;;;;;;4901309;28;44794;-55
2023/10/12 08:36:23;;;;;;;5.68;3.40;;;21.50;50.80;;;;;;4895964;28;45384;-55
2023/10/12 08:39:07;;;;;;;4.10;3.03;;;21.50;50.80;;;;;;4904928;28;45383;-51
2023/10/12 08:44:19;;;;;;;4.63;3.13;;;21.50;50.80;;;;;;4893907;28;44635;-51
2023/10/12 08:46:56;;;;;;;4.13;2.97;;;21.50;50.80;;;;;;4866212;28;45450;-51
2023/10/12 08:49:41;;;;;;;4.38;2.90;;;21.50;50.80;;;;;;4854755;28;45625;-52
2023/10/12 08:52:19;;;;;;;4.63;3.20;;;21.50;50.80;;;;;;4870360;28;46075;-51
2023/10/12 08:54:51;;;;;;;6.07;3.15;;;21.50;50.80;;;;;;4874437;28;45184;-52
2023/10/12 08:57:32;;;;;;;3.50;2.83;;;21.50;50.80;;;;;;4877289;28;45431;-51
2023/10/12 09:00:20;;;;;;;4.88;3.15;;;21.50;50.80;;;;;;4892146;28;46644;-58
2023/10/12 09:02:52;;;;;;;4.78;3.20;;;21.50;50.80;;;;;;4848310;28;45746;-53
2023/10/12 09:05:28;;;;;;;4.88;3.00;;;21.50;50.80;;;;;;4874228;28;45520;-57
2023/10/12 09:08:07;;;;;;;4.35;3.10;;;21.50;50.80;;;;;;4901705;28;45215;-55
2023/10/12 09:10:51;;;;;;;4.47;3.10;;;21.50;50.80;;;;;;4878136;28;45341;-55
2023/10/12 09:13:21;;;;;;;4.63;2.87;;;21.50;50.80;;;;;;4893824;28;45360;-54
2023/10/12 09:15:54;;;;;;;4.95;3.25;;;21.50;50.80;;;;;;4887963;28;45296;-53
2023/10/12 09:18:21;;;;;;;3.92;3.05;;;21.50;50.80;;;;;;4896200;28;45366;-51
2023/10/12 09:28:51;;;;;;;5.53;3.17;;;21.50;50.80;;;;;;4884738;28;45508;-53
2023/10/12 09:36:43;;;;;;;4.57;3.22;;;21.50;50.80;;;;;;4874865;28;45352;-56
2023/10/12 09:39:12;;;;;;;4.32;3.10;;;21.50;50.90;;;;;;4896287;28;44732;-53
2023/10/12 09:41:39;;;;;;;5.07;3.30;;;21.50;50.80;;;;;;4858835;28;46259;-54
2023/10/12 09:44:06;;;;;;;4.23;3.00;;;21.50;50.90;;;;;;4865365;28;45922;-54
2023/10/12 09:46:32;;;;;;;5.20;3.35;;;21.50;51.50;;;;;;4868007;28;45442;-53
2023/10/12 09:49:06;;;;;;;6.05;3.13;;;21.50;50.90;;;;;;4887814;28;45987;-52
2023/10/12 09:51:37;;;;;;;4.75;3.20;;;21.50;50.90;;;;;;4875862;28;44971;-52
2023/10/12 09:54:09;;;;;;;5.18;2.95;;;21.50;50.90;;;;;;4884914;28;45577;-56
2023/10/12 09:56:44;;;;;;;3.53;2.92;;;21.50;50.90;;;;;;4896631;28;45250;-54
2023/10/12 09:59:14;;;;;;;5.07;3.20;;;21.50;50.90;;;;;;4875802;28;48030;-52
2023/10/12 10:07:17;;;;;;;4.53;3.00;;;21.50;50.90;;;;;;4895925;28;45236;-53
2023/10/12 10:09:49;;;;;;;3.65;2.95;;;21.50;50.90;;;;;;4884572;28;44903;-54
2023/10/12 10:12:19;;;;;;;5.68;3.10;;;21.50;50.90;;;;;;4847025;28;45282;-53
2023/10/12 10:14:57;;;;;;;4.32;3.17;;;21.50;50.90;;;;;;4897002;28;46481;-53
2023/10/12 10:17:46;;;;;;;4.72;3.25;;;21.50;50.90;;;;;;4869506;28;45239;-51
2023/10/12 10:23:03;;;;;;;4.75;2.92;;;21.50;51.50;;;;;;4872691;28;45341;-58
2023/10/12 10:25:34;;;;;;;5.53;3.33;;;21.50;50.90;;;;;;4866229;28;45250;-52
2023/10/12 10:28:06;;;;;;;4.55;3.17;;;21.50;51.00;;;;;;4903939;28;44884;-57
2023/10/12 10:30:37;;;;;;;5.18;3.13;;;21.50;50.90;;;;;;4872308;28;45427;-52
2023/10/12 10:33:13;;;;;;;4.80;3.17;;;21.50;50.90;;;;;;4883455;28;45388;-55
2023/10/12 10:36:11;;;;;;;5.95;3.10;;;21.50;50.90;;;;;;4863381;28;45233;-53
2023/10/12 10:38:46;;;;;;;4.72;3.00;;;21.50;51.00;;;;;;4901074;28;45974;-56
2023/10/12 10:41:18;;;;;;;4.57;2.95;;;21.50;50.90;;;;;;4892721;28;45374;-54
2023/10/12 10:43:45;;;;;;;4.00;3.10;;;21.50;51.00;;;;;;4848881;28;45214;-58
2023/10/12 10:46:11;;;;;;;4.53;3.22;;;21.50;51.00;;;;;;4876937;28;45242;-55
2023/10/12 10:48:38;;;;;;;4.77;3.17;;;21.50;51.00;;;;;;4901901;28;45080;-53
2023/10/12 10:51:11;;;;;;;4.40;3.10;;;21.50;51.00;;;;;;4892001;28;45272;-54
2023/10/12 10:53:40;;;;;;;4.80;3.25;;;21.50;51.00;;;;;;4899674;28;45501;-56
2023/10/12 10:56:14;;;;;;;3.83;3.20;;;21.50;51.00;;;;;;4890751;28;45603;-55
2023/10/12 10:58:40;;;;;;;4.53;2.93;;;21.50;51.00;;;;;;4909638;28;44718;-56
2023/10/12 11:01:09;;;;;;;5.63;3.53;;;21.50;51.00;;;;;;4868506;28;45247;-58
2023/10/12 11:03:35;;;;;;;4.80;3.13;;;21.50;51.00;;;;;;4885812;28;48106;-50
2023/10/12 11:06:00;;;;;;;4.13;3.03;;;21.50;51.00;;;;;;4873467;28;45392;-52
2023/10/12 11:08:31;;;;;;;4.30;2.83;;;21.50;51.00;;;;;;4904526;28;45207;-51
2023/10/12 11:13:32;;;;;;;3.88;2.80;;;21.50;51.00;;;;;;4869413;28;45659;-51
2023/10/12 11:16:05;;;;;;;5.17;3.00;;;21.50;51.00;;;;;;4888858;28;45281;-52
2023/10/12 11:18:32;;;;;;;4.53;3.10;;;21.50;51.00;;;;;;4902598;28;45077;-51
2023/10/12 11:21:00;;;;;;;4.43;3.03;;;21.50;51.00;;;;;;4861779;28;45842;-56
2023/10/12 11:23:26;;;;;;;4.43;2.97;;;21.50;51.00;;;;;;4882711;28;45099;-54
2023/10/12 11:25:55;;;;;;;4.87;3.20;;;21.50;51.00;;;;;;4874256;28;45665;-54
2023/10/12 11:28:26;;;;;;;4.60;3.10;;;21.50;51.00;;;;;;4878758;28;45450;-52
2023/10/12 11:30:52;;;;;;;4.07;3.00;;;21.50;51.00;;;;;;4866713;28;45183;-56
2023/10/12 11:33:27;;;;;;;4.93;3.40;;;21.50;51.10;;;;;;4898463;28;45047;-57
2023/10/12 11:35:54;;;;;;;4.00;2.93;;;21.50;51.00;;;;;;4873357;28;46429;-52
2023/10/12 11:38:21;;;;;;;6.18;3.28;;;21.50;51.10;;;;;;4883483;28;45238;-54
2023/10/12 11:40:52;;;;;;;5.47;3.20;;;21.50;51.10;;;;;;4893630;28;44759;-53
2023/10/12 11:43:19;;;;;;;5.00;3.40;;;21.50;51.10;;;;;;4889616;28;45233;-54
2023/10/12 11:46:01;;;;;;;4.43;3.10;;;21.50;51.10;;;;;;4883445;28;45271;-55
2023/10/12 11:48:27;;;;;;;4.47;3.03;;;21.50;51.10;;;;;;4900320;28;45653;-56
2023/10/12 11:50:53;;;;;;;4.43;2.95;;;21.50;51.10;;;;;;4875614;28;45091;-58
2023/10/12 11:53:19;;;;;;;4.63;3.27;;;21.50;50.70;;;;;;4869101;28;45279;-55
2023/10/12 11:55:46;;;;;;;4.80;3.40;;;21.50;51.10;;;;;;4897605;28;44978;-54
2023/10/12 11:58:18;;;;;;;4.43;2.92;;;21.50;51.10;;;;;;4887398;28;45321;-58
2023/10/12 12:00:52;;;;;;;4.20;2.90;;;21.50;51.10;;;;;;4880280;28;45612;-59
2023/10/12 12:03:18;;;;;;;5.17;3.03;;;21.50;51.10;;;;;;4896690;28;44803;-58
2023/10/12 12:05:50;;;;;;;4.10;2.83;;;21.50;51.10;;;;;;4897093;28;45581;-59
2023/10/12 12:08:18;;;;;;;3.42;2.70;;;21.50;51.10;;;;;;4903356;28;45255;-56
2023/10/12 12:13:16;;;;;;;4.13;3.15;;;21.50;51.10;;;;;;4897182;28;45891;-59
2023/10/12 12:15:45;;;;;;;4.93;3.13;;;21.50;51.20;;;;;;4847246;28;45290;-55
2023/10/12 12:18:18;;;;;;;4.70;2.92;;;21.50;51.10;;;;;;4884523;28;45074;-52
2023/10/12 12:20:44;;;;;;;4.05;3.10;;;21.50;51.20;;;;;;4873554;28;45267;-54
2023/10/12 12:23:13;;;;;;;5.35;3.17;;;21.50;51.20;;;;;;4888998;28;45255;-55
2023/10/12 12:25:39;;;;;;;4.45;3.00;;;21.50;51.20;;;;;;4872326;28;46105;-54
2023/10/12 12:28:07;;;;;;;6.23;3.20;;;21.50;51.20;;;;;;4876609;28;45176;-51
2023/10/12 12:30:39;;;;;;;4.77;3.00;;;21.50;51.20;;;;;;4865925;28;45410;-53
2023/10/12 12:33:08;;;;;;;3.80;3.03;;;21.50;51.20;;;;;;4851115;28;45464;-51
2023/10/12 12:35:36;;;;;;;4.03;3.00;;;21.50;51.20;;;;;;4885787;28;45612;-53
2023/10/12 12:38:04;;;;;;;3.85;2.95;;;21.50;51.20;;;;;;4886799;28;44629;-52
2023/10/12 12:40:30;;;;;;;4.40;2.92;;;21.50;51.20;;;;;;4892036;28;45212;-52
2023/10/12 12:43:00;;;;;;;3.47;2.90;;;21.50;51.20;;;;;;4900092;28;45188;-54
2023/10/12 12:45:26;;;;;;;4.30;3.03;;;21.50;51.20;;;;;;4871008;28;45521;-51
2023/10/12 12:47:55;;;;;;;5.65;3.20;;;21.50;51.20;;;;;;4864496;28;45419;-53
2023/10/12 12:50:21;;;;;;;4.72;3.10;;;21.50;51.20;;;;;;4886463;28;45278;-54
2023/10/12 12:52:46;;;;;;;4.70;2.90;;;21.50;51.20;;;;;;4902800;28;45239;-51
2023/10/12 12:55:18;;;;;;;4.03;3.00;;;21.50;51.20;;;;;;4883816;28;45906;-53
2023/10/12 12:57:45;;;;;;;4.32;3.15;;;21.50;51.20;;;;;;4890261;28;45361;-54
2023/10/12 13:00:19;;;;;;;3.92;2.92;;;21.50;51.30;;;;;;4892765;28;45694;-51
2023/10/12 13:02:46;;;;;;;4.32;3.08;;;21.50;51.30;;;;;;4897733;28;45987;-53
2023/10/12 13:05:12;;;;;;;4.70;3.10;;;21.50;51.30;;;;;;4894296;28;45441;-55
2023/10/12 13:07:37;;;;;;;3.63;2.83;;;21.50;51.30;;;;;;4886138;28;45520;-51
2023/10/12 13:10:06;;;;;;;4.07;3.20;;;21.50;51.30;;;;;;4900496;28;45675;-56
2023/10/12 13:12:32;;;;;;;4.80;3.30;;;21.50;51.30;;;;;;4850649;28;45242;-53
2023/10/12 13:15:01;;;;;;;4.13;2.90;;;21.50;51.30;;;;;;4896064;28;45228;-51
2023/10/12 13:17:30;;;;;;;4.80;3.08;;;21.50;51.30;;;;;;4847992;28;45203;-51
2023/10/12 13:19:58;;;;;;;3.72;2.97;;;21.50;51.30;;;;;;4895089;28;45029;-52
2023/10/12 13:22:25;;;;;;;4.03;3.10;;;21.50;51.30;;;;;;4890131;28;45835;-53
2023/10/12 13:24:56;;;;;;;3.72;2.83;;;21.50;51.30;;;;;;4908296;28;45324;-51
2023/10/12 13:27:24;;;;;;;3.93;2.80;;;21.50;51.30;;;;;;4892786;28;45232;-54
2023/10/12 13:29:50;;;;;;;3.92;2.85;;;21.50;51.40;;;;;;4897282;28;45269;-55
2023/10/12 13:32:18;;;;;;;3.55;2.80;;;21.50;51.30;;;;;;4885611;28;45446;-55
2023/10/12 13:34:44;;;;;;;5.32;3.10;;;21.50;51.30;;;;;;4901885;28;45320;-54
2023/10/12 13:37:13;;;;;;;4.78;3.10;;;21.50;51.40;;;;;;4876287;28;45079;-56
2023/10/12 13:39:38;;;;;;;3.38;2.80;;;21.50;51.30;;;;;;4891042;28;46739;-55
2023/10/12 13:42:11;;;;;;;3.40;2.75;;;21.50;51.30;;;;;;4893754;28;45262;-52
2023/10/12 13:44:39;;;;;;;4.32;3.00;;;21.50;51.40;;;;;;4897773;28;45411;-51
2023/10/12 13:47:07;;;;;;;5.13;3.20;;;21.50;51.40;;;;;;4876822;28;45240;-51
2023/10/12 13:49:34;;;;;;;4.83;3.10;;;21.50;51.40;;;;;;4895584;28;45506;-52
2023/10/12 13:52:03;;;;;;;5.13;3.00;;;21.50;51.40;;;;;;4876164;28;45017;-52
2023/10/12 13:54:31;;;;;;;4.93;3.22;;;21.50;52.00;;;;;;4900493;28;46190;-52
2023/10/12 13:56:58;;;;;;;5.13;2.83;;;21.50;51.40;;;;;;4879698;28;45468;-51
2023/10/12 13:59:24;;;;;;;3.53;2.92;;;21.50;51.40;;;;;;4898436;28;45429;-54
2023/10/12 14:01:51;;;;;;;4.10;2.90;;;21.50;51.40;;;;;;4880677;28;45266;-52
2023/10/12 14:04:28;;;;;;;4.03;3.13;;;21.50;51.40;;;;;;4901202;28;45265;-54
2023/10/12 14:07:00;;;;;;;5.18;2.97;;;21.50;51.40;;;;;;4879977;28;45288;-54
2023/10/12 14:09:27;;;;;;;4.07;3.00;;;21.50;51.40;;;;;;4899001;28;45260;-54
2023/10/12 14:11:54;;;;;;;4.13;3.10;;;21.50;51.40;;;;;;4892298;28;44805;-53
2023/10/12 14:14:20;;;;;;;3.77;2.87;;;21.50;51.40;;;;;;4898628;28;45585;-54
2023/10/12 14:16:46;;;;;;;3.72;2.75;;;21.50;51.40;;;;;;4863733;28;45087;-54
2023/10/12 14:19:12;;;;;;;3.88;3.10;;;21.50;51.50;;;;;;4896178;28;45637;-51
2023/10/12 14:21:39;;;;;;;4.05;3.13;;;21.50;51.40;;;;;;4875392;28;45051;-52
2023/10/12 14:24:05;;;;;;;3.90;2.88;;;21.50;51.40;;;;;;4902308;28;48023;-52
2023/10/12 14:26:35;;;;;;;4.05;2.80;;;21.50;51.40;;;;;;4873437;28;45438;-54
2023/10/12 14:29:05;;;;;;;4.18;2.70;;;21.50;51.50;;;;;;4869774;28;45971;-50
2023/10/12 14:31:31;;;;;;;3.60;2.88;;;21.50;51.50;;;;;;4871215;28;46273;-53
2023/10/12 14:33:57;;;;;;;4.15;2.80;;;21.50;51.50;;;;;;4866859;28;45310;-52
2023/10/12 14:36:23;;;;;;;4.40;2.90;;;21.50;51.50;;;;;;4872914;28;45081;-52
2023/10/12 14:38:52;;;;;;;3.25;2.85;;;21.50;51.50;;;;;;4901206;28;45139;-51
2023/10/12 14:41:17;;;;;;;3.97;3.28;;;21.50;51.50;;;;;;4894604;28;45301;-53
2023/10/12 14:43:47;;;;;;;4.47;3.27;;;21.50;51.50;;;;;;4895908;28;46260;-52
2023/10/12 14:46:13;;;;;;;3.70;3.13;;;21.50;52.10;;;;;;4847603;28;45375;-55
2023/10/12 14:48:43;;;;;;;3.50;3.00;;;21.50;51.50;;;;;;4879352;28;45175;-52
2023/10/12 14:51:12;;;;;;;4.20;3.08;;;21.50;51.50;;;;;;4875177;28;45579;-54
2023/10/12 14:53:39;;;;;;;4.30;2.90;;;21.50;51.50;;;;;;4897591;28;45519;-55
2023/10/12 14:56:05;;;;;;;3.03;2.72;;;21.50;51.60;;;;;;4887582;28;45331;-53
2023/10/12 14:58:31;;;;;;;4.23;2.80;;;21.50;51.50;;;;;;4882881;28;45311;-54
2023/10/12 15:00:56;;;;;;;4.18;3.05;;;21.50;51.50;;;;;;4869176;28;45506;-53
2023/10/12 15:03:22;;;;;;;3.72;2.70;;;21.50;51.50;;;;;;4897966;28;45530;-51
2023/10/12 15:05:55;;;;;;;5.00;3.10;;;21.50;51.50;;;;;;4863793;28;45965;-51
2023/10/12 15:08:21;;;;;;;4.90;3.38;;;21.50;51.60;;;;;;4880403;28;45596;-53
2023/10/12 15:10:46;;;;;;;4.50;2.92;;;21.50;51.60;;;;;;4873418;28;45464;-53
2023/10/12 15:13:16;;;;;;;3.78;2.90;;;21.50;51.60;;;;;;4895501;28;45306;-52
2023/10/12 15:15:45;;;;;;;4.78;2.92;;;21.50;51.60;;;;;;4878255;28;47565;-50
2023/10/12 15:18:14;;;;;;;4.00;3.22;;;21.50;51.70;;;;;;4883638;28;45384;-51
2023/10/12 15:20:41;;;;;;;3.70;3.10;;;21.50;51.60;;;;;;4871257;28;45498;-53
2023/10/12 15:23:08;;;;;;;3.72;3.00;;;21.50;51.60;;;;;;4882597;28;46325;-51
2023/10/12 15:25:34;;;;;;;3.63;2.78;;;21.50;51.60;;;;;;4869089;28;46448;-51
2023/10/12 15:28:01;;;;;;;4.90;3.22;;;21.50;52.20;;;;;;4900810;28;45404;-50
2023/10/12 15:30:27;;;;;;;3.78;3.10;;;21.50;51.60;;;;;;4890076;28;45250;-53
2023/10/12 15:32:54;;;;;;;4.05;3.22;;;21.50;51.60;;;;;;4876986;28;45720;-53
2023/10/12 15:35:23;;;;;;;4.32;2.97;;;21.50;51.60;;;;;;4866472;28;45180;-53
2023/10/12 15:37:49;;;;;;;4.15;3.00;;;21.50;51.60;;;;;;4883117;28;45217;-52
2023/10/12 15:40:17;;;;;;;5.10;2.97;;;21.50;51.60;;;;;;4881400;28;45497;-51
2023/10/12 15:42:54;;;;;;;3.67;2.73;;;21.50;51.60;;;;;;4866817;28;45786;-53
2023/10/12 15:45:20;;;;;;;3.85;2.85;;;21.50;51.70;;;;;;4872974;28;45800;-52
2023/10/12 15:47:46;;;;;;;3.92;2.88;;;21.50;51.70;;;;;;4886530;28;45802;-51
2023/10/12 15:50:17;;;;;;;4.03;3.00;;;21.50;51.60;;;;;;4877873;28;45321;-53
2023/10/12 15:52:43;;;;;;;3.90;2.83;;;21.50;51.60;;;;;;4863719;28;45212;-54
2023/10/12 15:55:12;;;;;;;5.10;2.92;;;21.50;51.70;;;;;;4877034;28;45637;-53
2023/10/12 15:57:42;;;;;;;4.03;3.30;;;21.50;51.70;;;;;;4873203;28;45504;-51
2023/10/12 16:00:22;;;;;;;3.58;2.80;;;21.50;51.70;;;;;;4881299;28;45308;-54
2023/10/12 16:02:56;;;;;;;4.23;3.10;;;21.50;51.70;;;;;;4876016;28;45247;-55
2023/10/12 16:05:23;;;;;;;4.50;3.17;;;21.50;51.70;;;;;;4892902;28;45352;-52
2023/10/12 16:07:50;;;;;;;3.78;3.10;;;21.50;51.70;;;;;;4887642;28;45282;-51
2023/10/12 16:10:16;;;;;;;5.00;3.10;;;21.50;51.70;;;;;;4875844;28;46120;-50
2023/10/12 16:12:42;;;;;;;3.78;2.80;;;21.50;51.70;;;;;;4892010;28;45155;-53
2023/10/12 16:15:09;;;;;;;4.97;3.50;;;21.50;52.30;;;;;;4883860;28;45341;-53
2023/10/12 16:17:36;;;;;;;3.93;3.03;;;21.50;51.70;;;;;;4837383;28;45308;-55
2023/10/12 16:20:05;;;;;;;4.05;3.17;;;21.50;51.80;;;;;;4879788;28;45354;-50
2023/10/12 16:22:32;;;;;;;3.15;2.83;;;21.50;51.80;;;;;;4848727;28;45940;-49
2023/10/12 16:25:06;;;;;;;3.40;2.90;;;21.50;51.80;;;;;;4898602;28;45236;-49
2023/10/12 16:27:33;;;;;;;3.97;3.10;;;21.50;51.70;;;;;;4880960;28;45335;-50
2023/10/12 16:29:59;;;;;;;5.40;3.13;;;21.50;51.70;;;;;;4867251;28;45444;-49
2023/10/12 16:32:25;;;;;;;3.80;3.15;;;21.50;51.80;;;;;;4865437;28;45407;-51
2023/10/12 16:34:51;;;;;;;4.45;3.25;;;21.50;51.80;;;;;;4896769;28;45691;-50
2023/10/12 16:37:16;;;;;;;4.43;3.13;;;21.50;51.80;;;;;;4887377;28;45769;-49
2023/10/12 16:39:42;;;;;;;4.32;3.10;;;21.50;52.10;;;;;;4891138;28;45304;-52
2023/10/12 16:42:08;;;;;;;4.65;3.00;;;21.50;51.80;;;;;;4890450;28;45574;-53
2023/10/12 16:44:33;;;;;;;4.97;3.35;;;21.50;51.80;;;;;;4896479;28;45680;-50
2023/10/12 16:46:59;;;;;;;4.18;3.17;;;21.50;51.80;;;;;;4879772;28;45573;-49
2023/10/12 16:49:27;;;;;;;3.90;3.00;;;21.50;51.80;;;;;;4889718;28;45147;-49
2023/10/12 16:51:53;;;;;;;4.45;3.22;;;21.50;51.80;;;;;;4880876;28;46766;-51
2023/10/12 16:54:18;;;;;;;4.17;3.00;;;21.50;51.80;;;;;;4898849;28;45174;-52
2023/10/12 16:56:44;;;;;;;5.20;3.37;;;21.50;51.80;;;;;;4884458;28;45710;-55
2023/10/12 16:59:15;;;;;;;5.15;3.33;;;21.50;51.90;;;;;;4893899;28;45988;-51
2023/10/12 17:01:41;;;;;;;4.65;3.28;;;21.50;51.90;;;;;;4867832;28;45578;-49
2023/10/12 17:04:13;;;;;;;5.80;3.35;;;21.50;51.90;;;;;;4878350;28;46460;-51
2023/10/12 17:06:39;;;;;;;4.97;3.40;;;21.50;51.90;;;;;;4888807;28;46093;-52
2023/10/12 17:09:04;;;;;;;5.37;3.30;;;21.50;51.90;;;;;;4894469;28;45364;-52
2023/10/12 17:11:30;;;;;;;4.47;3.10;;;21.50;52.00;;;;;;4880634;28;45572;-53
2023/10/12 17:13:56;;;;;;;4.70;3.30;;;21.50;52.00;;;;;;4873681;28;46279;-50
2023/10/12 17:16:22;;;;;;;4.77;3.30;;;21.50;52.10;;;;;;4861559;28;45979;-51
2023/10/12 17:18:53;;;;;;;4.13;3.13;;;21.50;52.00;;;;;;4891800;28;45221;-54